Time;durP1;ratioP1;P1;durP2;ratioP2;P2;SDS_P1;SDS_P2;PMS_P1;PMS_P2;Temp;Humidity;BMP_temperature;BMP_pressure;BME280_temperature;BME280_humidity;BME280_pressure;Samples;Min_cycle;Max_cycle;Signal;HPM_P1;HPM_P2
2023/10/23 00:01:59;;;;;;;;;;;;;;;16.02;58.92;100813.59;4203302;28;20019;-54
2023/10/23 00:04:01;;;;;;;;;;;;;;;16.01;59.17;100807.44;4211505;28;19931;-54
2023/10/23 00:06:03;;;;;;;;;;;;;;;16.02;58.83;100805.66;4202177;28;20295;-55
2023/10/23 00:08:04;;;;;;;;;;;;;;;16.02;58.92;100797.69;4213497;28;20430;-55
2023/10/23 00:10:06;;;;;;;;;;;;;;;16.01;59.12;100803.94;4206601;28;20018;-54
2023/10/23 00:12:09;;;;;;;;;;;;;;;16.01;58.94;100801.28;4207502;28;19970;-55
2023/10/23 00:14:10;;;;;;;;;;;;;;;16.00;59.19;100797.75;4212055;28;19924;-54
2023/10/23 00:16:12;;;;;;;;;;;;;;;15.99;58.88;100790.78;4201471;28;19929;-54
2023/10/23 00:18:13;;;;;;;;;;;;;;;15.99;58.96;100796.06;4213365;28;19977;-56
2023/10/23 00:20:15;;;;;;;;;;;;;;;16.00;59.11;100796.91;4204134;28;19924;-54
2023/10/23 00:22:16;;;;;;;;;;;;;;;15.99;58.85;100796.06;4196513;28;19982;-55
2023/10/23 00:24:18;;;;;;;;;;;;;;;15.99;58.80;100792.53;4204905;28;19925;-56
2023/10/23 00:26:19;;;;;;;;;;;;;;;15.97;58.78;100795.28;4204868;28;20373;-53
2023/10/23 00:28:21;;;;;;;;;;;;;;;15.97;58.84;100797.94;4213176;28;19924;-54
2023/10/23 00:30:23;;;;;;;;;;;;;;;15.96;59.17;100794.41;4209513;28;19928;-55
2023/10/23 00:32:24;;;;;;;;;;;;;;;15.97;58.91;100796.13;4211412;28;19928;-55
2023/10/23 00:34:26;;;;;;;;;;;;;;;15.95;58.93;100791.88;4213098;28;20500;-55
2023/10/23 00:36:27;;;;;;;;;;;;;;;15.95;58.90;100789.22;4202354;28;20360;-56
2023/10/23 00:38:29;;;;;;;;;;;;;;;15.95;59.20;100787.44;4211092;28;20360;-56
2023/10/23 00:40:31;;;;;;;;;;;;;;;15.95;59.12;100787.44;4211533;28;20347;-56
2023/10/23 00:42:32;;;;;;;;;;;;;;;15.95;58.85;100782.13;4196341;28;20047;-55
2023/10/23 00:44:34;;;;;;;;;;;;;;;15.94;58.79;100782.19;4195933;28;19946;-54
2023/10/23 00:46:36;;;;;;;;;;;;;;;15.92;58.83;100779.63;4195986;28;19931;-57
2023/10/23 00:48:38;;;;;;;;;;;;;;;15.92;58.94;100773.50;4196077;28;19982;-54
2023/10/23 00:50:40;;;;;;;;;;;;;;;15.92;59.08;100773.50;4200515;28;20007;-55
2023/10/23 00:52:42;;;;;;;;;;;;;;;15.90;59.03;100770.91;4207234;28;19928;-54
2023/10/23 00:54:44;;;;;;;;;;;;;;;15.91;59.14;100766.47;4178436;28;20051;-54
2023/10/23 00:56:46;;;;;;;;;;;;;;;15.89;59.18;100768.34;4203713;28;20343;-57
2023/10/23 00:58:48;;;;;;;;;;;;;;;15.90;58.89;100776.22;4200892;28;20008;-54
2023/10/23 01:00:50;;;;;;;;;;;;;;;15.89;59.10;100774.50;4197722;28;20377;-54
2023/10/23 01:02:51;;;;;;;;;;;;;;;15.89;59.18;100776.31;4207361;28;19924;-54
2023/10/23 01:04:53;;;;;;;;;;;;;;;15.89;58.87;100778.97;4178350;28;19932;-52
2023/10/23 01:06:56;;;;;;;;;;;;;;;15.88;59.09;100779.91;4201964;28;19924;-52
2023/10/23 01:08:57;;;;;;;;;;;;;;;15.87;58.76;100779.06;4202489;28;19931;-50
2023/10/23 01:10:59;;;;;;;;;;;;;;;15.86;59.16;100777.34;4196592;28;19924;-51
2023/10/23 01:13:05;;;;;;;;;;;;;;;15.86;58.88;100774.69;4207237;28;19924;-53
2023/10/23 01:15:06;;;;;;;;;;;;;;;15.86;58.79;100774.69;4196080;28;19993;-53
2023/10/23 01:17:08;;;;;;;;;;;;;;;15.86;58.75;100774.69;4200679;28;20307;-55
2023/10/23 01:19:09;;;;;;;;;;;;;;;15.86;59.03;100774.69;4212792;28;19924;-54
2023/10/23 01:21:11;;;;;;;;;;;;;;;15.85;58.81;100770.31;4212735;28;20317;-54
2023/10/23 01:23:12;;;;;;;;;;;;;;;15.84;58.75;100771.25;4200400;28;20243;-55
2023/10/23 01:25:15;;;;;;;;;;;;;;;15.85;59.21;100766.81;4208653;28;19928;-51
2023/10/23 01:27:16;;;;;;;;;;;;;;;15.84;59.07;100754.50;4202277;28;19932;-51
2023/10/23 01:29:18;;;;;;;;;;;;;;;15.84;58.93;100751.84;4208168;28;19978;-55
2023/10/23 01:31:19;;;;;;;;;;;;;;;15.84;59.20;100750.03;4204903;28;20355;-55
2023/10/23 01:33:21;;;;;;;;;;;;;;;15.81;58.92;100744.91;4211187;28;20010;-56
2023/10/23 01:35:23;;;;;;;;;;;;;;;15.81;59.03;100752.84;4200721;28;19960;-53
2023/10/23 01:37:24;;;;;;;;;;;;;;;15.81;58.74;100750.19;4199880;28;20015;-54
2023/10/23 01:39:26;;;;;;;;;;;;;;;15.80;58.87;100738.72;4210088;28;19964;-53
2023/10/23 01:41:27;;;;;;;;;;;;;;;15.81;58.84;100739.59;4198756;28;19932;-54
2023/10/23 01:43:29;;;;;;;;;;;;;;;15.80;58.75;100744.03;4202660;28;20027;-55
2023/10/23 01:45:30;;;;;;;;;;;;;;;15.78;58.77;100740.63;4211883;28;19928;-54
2023/10/23 01:47:32;;;;;;;;;;;;;;;15.78;59.04;100737.97;4213811;28;20339;-54
2023/10/23 01:49:34;;;;;;;;;;;;;;;15.79;59.04;100742.31;4204097;28;19977;-54
2023/10/23 01:51:35;;;;;;;;;;;;;;;15.79;58.98;100738.81;4199455;28;19950;-56
2023/10/23 01:53:37;;;;;;;;;;;;;;;15.78;58.78;100740.63;4202267;28;19939;-55
2023/10/23 01:55:39;;;;;;;;;;;;;;;15.78;58.71;100734.44;4210070;28;19924;-53
2023/10/23 01:57:40;;;;;;;;;;;;;;;15.78;59.10;100730.03;4213248;28;19946;-54
2023/10/23 01:59:42;;;;;;;;;;;;;;;15.77;58.99;100725.66;4203882;28;20408;-54
2023/10/23 02:01:44;;;;;;;;;;;;;;;15.76;58.90;100721.28;4210761;28;19924;-55
2023/10/23 02:03:45;;;;;;;;;;;;;;;15.76;59.05;100715.13;4203676;28;19968;-54
2023/10/23 02:05:47;;;;;;;;;;;;;;;15.75;58.87;100708.97;4205302;28;19959;-55
2023/10/23 02:07:49;;;;;;;;;;;;;;;15.76;58.69;100710.69;4198442;28;20031;-55
2023/10/23 02:09:50;;;;;;;;;;;;;;;15.76;58.92;100717.75;4197975;28;19986;-54
2023/10/23 02:11:52;;;;;;;;;;;;;;;15.76;58.90;100715.97;4198126;28;19928;-55
2023/10/23 02:13:54;;;;;;;;;;;;;;;15.77;58.92;100714.19;4198287;28;19967;-55
2023/10/23 02:15:55;;;;;;;;;;;;;;;15.75;58.70;100719.56;4198266;28;19986;-55
2023/10/23 02:17:57;;;;;;;;;;;;;;;15.76;58.91;100720.41;4207053;28;19997;-55
2023/10/23 02:19:59;;;;;;;;;;;;;;;15.76;58.81;100723.06;4199370;28;19929;-55
2023/10/23 02:22:00;;;;;;;;;;;;;;;15.74;58.61;100717.03;4198248;28;19982;-54
2023/10/23 02:24:02;;;;;;;;;;;;;;;15.74;58.64;100724.97;4205750;28;19924;-54
2023/10/23 02:26:04;;;;;;;;;;;;;;;15.73;58.66;100718.81;4188420;28;19925;-55
2023/10/23 02:28:06;;;;;;;;;;;;;;;15.73;58.57;100717.97;4197929;28;19975;-55
2023/10/23 02:30:07;;;;;;;;;;;;;;;15.73;58.85;100720.59;4207418;28;20491;-53
2023/10/23 02:32:09;;;;;;;;;;;;;;;15.72;58.75;100717.09;4213811;28;19977;-54
2023/10/23 02:34:10;;;;;;;;;;;;;;;15.72;58.65;100710.94;4211614;28;19998;-54
2023/10/23 02:36:12;;;;;;;;;;;;;;;15.70;58.60;100705.75;4209330;28;19924;-55
2023/10/23 02:38:14;;;;;;;;;;;;;;;15.70;58.62;100705.75;4196841;28;19968;-54
2023/10/23 02:40:15;;;;;;;;;;;;;;;15.69;58.60;100704.03;4205479;28;19928;-53
2023/10/23 02:42:17;;;;;;;;;;;;;;;15.69;58.85;100704.03;4202530;28;19928;-54
2023/10/23 02:44:18;;;;;;;;;;;;;;;15.69;58.50;100695.19;4199010;28;20417;-55
2023/10/23 02:46:20;;;;;;;;;;;;;;;15.68;58.64;100698.81;4209013;28;19933;-54
2023/10/23 02:48:21;;;;;;;;;;;;;;;15.67;58.37;100697.09;4197394;28;19924;-54
2023/10/23 02:50:23;;;;;;;;;;;;;;;15.66;58.79;100701.53;4200961;28;20288;-54
2023/10/23 02:52:25;;;;;;;;;;;;;;;15.65;58.59;100689.25;4204200;28;20301;-54
2023/10/23 02:54:26;;;;;;;;;;;;;;;15.65;58.57;100692.75;4197796;28;19924;-55
2023/10/23 02:56:28;;;;;;;;;;;;;;;15.65;58.82;100689.25;4202452;28;20350;-55
2023/10/23 02:58:32;;;;;;;;;;;;;;;15.64;58.74;100688.38;4214404;28;19924;-57
2023/10/23 03:00:34;;;;;;;;;;;;;;;15.63;58.62;100694.63;4209333;28;19931;-55
2023/10/23 03:02:36;;;;;;;;;;;;;;;15.64;58.76;100692.84;4209095;28;19924;-55
2023/10/23 03:04:37;;;;;;;;;;;;;;;15.64;58.51;100690.19;4214230;28;20010;-51
2023/10/23 03:06:41;;;;;;;;;;;;;;;15.64;58.53;100690.19;4201198;28;19932;-55
2023/10/23 03:08:43;;;;;;;;;;;;;;;15.63;58.59;100686.66;4214038;28;19924;-53
2023/10/23 03:10:45;;;;;;;;;;;;;;;15.62;58.50;100687.59;4210421;28;19978;-53
2023/10/23 03:12:46;;;;;;;;;;;;;;;15.63;58.46;100693.78;4205060;28;19985;-54
2023/10/23 03:14:48;;;;;;;;;;;;;;;15.62;58.62;100686.75;4214036;28;19968;-53
2023/10/23 03:16:49;;;;;;;;;;;;;;;15.61;58.39;100687.69;4202822;28;19928;-54
2023/10/23 03:18:51;;;;;;;;;;;;;;;15.60;58.63;100685.97;4213533;28;20370;-56
2023/10/23 03:20:53;;;;;;;;;;;;;;;15.60;58.47;100680.69;4208159;28;19924;-55
2023/10/23 03:22:54;;;;;;;;;;;;;;;15.59;58.31;100679.84;4195556;28;19928;-55
2023/10/23 03:24:57;;;;;;;;;;;;;;;15.57;58.37;100679.06;4206816;28;19931;-54
2023/10/23 03:26:58;;;;;;;;;;;;;;;15.58;58.75;100672.81;4205744;28;20466;-53
2023/10/23 03:29:00;;;;;;;;;;;;;;;15.57;58.74;100671.09;4200238;28;19990;-54
2023/10/23 03:31:03;;;;;;;;;;;;;;;15.56;58.53;100666.75;4199584;28;20015;-56
2023/10/23 03:33:05;;;;;;;;;;;;;;;15.55;58.51;100662.38;4202247;28;19993;-55
2023/10/23 03:35:06;;;;;;;;;;;;;;;15.54;58.73;100663.34;4213937;28;19962;-55
2023/10/23 03:37:08;;;;;;;;;;;;;;;15.55;58.59;100659.72;4205539;28;19928;-54
2023/10/23 03:39:09;;;;;;;;;;;;;;;15.55;58.30;100661.53;4208696;28;19955;-54
2023/10/23 03:41:11;;;;;;;;;;;;;;;15.55;58.61;100658.88;4212475;28;19928;-53
2023/10/23 03:43:12;;;;;;;;;;;;;;;15.55;58.25;100661.53;4202170;28;19939;-52
2023/10/23 03:45:14;;;;;;;;;;;;;;;15.53;58.38;100655.47;4213666;28;20011;-53
2023/10/23 03:47:16;;;;;;;;;;;;;;;15.51;58.61;100655.56;4211778;28;20357;-53
2023/10/23 03:49:17;;;;;;;;;;;;;;;15.51;58.43;100655.56;4196239;28;19924;-55
2023/10/23 03:51:18;;;;;;;;;;;;;;;15.51;58.42;100657.38;4208994;28;19928;-55
2023/10/23 03:53:20;;;;;;;;;;;;;;;15.51;58.58;100652.91;4208406;28;19928;-54
2023/10/23 03:55:21;;;;;;;;;;;;;;;15.51;58.45;100654.72;4196756;28;19924;-55
2023/10/23 03:57:23;;;;;;;;;;;;;;;15.50;58.24;100648.53;4200736;28;19924;-52
2023/10/23 03:59:25;;;;;;;;;;;;;;;15.49;58.42;100641.53;4205094;28;20483;-52
2023/10/23 04:01:26;;;;;;;;;;;;;;;15.48;58.58;100640.69;4198743;28;20419;-53
2023/10/23 04:03:28;;;;;;;;;;;;;;;15.48;58.56;100635.38;4209020;28;19979;-55
2023/10/23 04:05:40;;;;;;;;;;;;;;;15.48;58.44;100631.88;4196646;28;19965;-53
2023/10/23 04:07:42;;;;;;;;;;;;;;;15.47;58.29;100628.38;4199941;28;19925;-54
2023/10/23 04:09:43;;;;;;;;;;;;;;;15.48;58.24;100623.91;4205364;28;19929;-53
2023/10/23 04:11:45;;;;;;;;;;;;;;;15.47;58.54;100625.72;4196782;28;19961;-55
2023/10/23 04:13:52;;;;;;;;;;;;;;;15.48;58.18;100621.25;4199458;28;19967;-53
2023/10/23 04:15:57;;;;;;;;;;;;;;;15.47;58.25;100620.44;4196532;28;20046;-50
2023/10/23 04:17:59;;;;;;;;;;;;;;;15.46;58.27;100615.22;4198037;28;19940;-52
2023/10/23 04:20:01;;;;;;;;;;;;;;;15.45;58.32;100622.31;4195362;28;20380;-52
2023/10/23 04:22:02;;;;;;;;;;;;;;;15.44;58.12;100612.66;4213105;28;20457;-52
2023/10/23 04:24:05;;;;;;;;;;;;;;;15.44;58.13;100611.78;4206750;28;19990;-54
2023/10/23 04:26:07;;;;;;;;;;;;;;;15.43;58.40;100610.97;4207150;28;19979;-52
2023/10/23 04:28:09;;;;;;;;;;;;;;;15.43;58.15;100613.59;4208754;28;19928;-51
2023/10/23 04:30:10;;;;;;;;;;;;;;;15.45;58.13;100611.69;4207088;28;20015;-54
2023/10/23 04:32:12;;;;;;;;;;;;;;;15.44;58.10;100614.44;4209641;28;20288;-53
2023/10/23 04:34:14;;;;;;;;;;;;;;;15.44;58.39;100606.50;4208586;28;19924;-54
2023/10/23 04:36:16;;;;;;;;;;;;;;;15.43;58.07;100608.31;4199225;28;19924;-54
2023/10/23 04:38:17;;;;;;;;;;;;;;;15.42;58.29;100606.59;4197330;28;19925;-54
2023/10/23 04:40:23;;;;;;;;;;;;;;;15.43;58.29;100605.66;4207539;28;19931;-52
2023/10/23 04:42:25;;;;;;;;;;;;;;;15.42;58.08;100606.59;4196551;28;19952;-52
2023/10/23 04:44:27;;;;;;;;;;;;;;;15.43;58.05;100610.09;4204475;28;19924;-53
2023/10/23 04:46:28;;;;;;;;;;;;;;;15.42;58.15;100598.66;4211615;28;19930;-53
2023/10/23 04:48:30;;;;;;;;;;;;;;;15.41;58.13;100602.22;4195795;28;19925;-53
2023/10/23 04:50:32;;;;;;;;;;;;;;;15.41;58.19;100598.75;4202418;28;19924;-53
2023/10/23 04:52:34;;;;;;;;;;;;;;;15.41;58.44;100594.28;4213157;28;20405;-52
2023/10/23 04:54:35;;;;;;;;;;;;;;;15.41;58.27;100593.44;4208519;28;19962;-53
2023/10/23 04:56:39;;;;;;;;;;;;;;;15.42;58.15;100590.69;4202112;28;20389;-54
2023/10/23 04:58:40;;;;;;;;;;;;;;;15.42;58.33;100589.81;4197493;28;20305;-52
2023/10/23 05:00:44;;;;;;;;;;;;;;;15.41;58.01;100586.34;4196248;28;19925;-52
2023/10/23 05:02:46;;;;;;;;;;;;;;;15.41;58.22;100588.97;4193811;28;19980;-53
2023/10/23 05:04:48;;;;;;;;;;;;;;;15.41;58.21;100586.34;4209992;28;19950;-53
2023/10/23 05:06:49;;;;;;;;;;;;;;;15.42;57.98;100581.88;4209232;28;20374;-52
2023/10/23 05:08:51;;;;;;;;;;;;;;;15.42;57.99;100576.56;4215969;28;19924;-53
2023/10/23 05:11:03;;;;;;;;;;;;;;;15.41;57.93;100572.25;4200195;28;19931;-54
2023/10/23 05:13:05;;;;;;;;;;;;;;;15.42;57.95;100574.78;4199377;28;19924;-54
2023/10/23 05:15:08;;;;;;;;;;;;;;;15.41;58.03;100573.06;4198857;28;19925;-53
2023/10/23 05:17:09;;;;;;;;;;;;;;;15.41;57.80;100564.28;4201390;28;19934;-54
2023/10/23 05:19:11;;;;;;;;;;;;;;;15.41;58.14;100557.19;4215520;28;19925;-54
2023/10/23 05:21:12;;;;;;;;;;;;;;;15.41;58.13;100554.53;4199247;28;19928;-53
2023/10/23 05:23:14;;;;;;;;;;;;;;;15.40;58.13;100557.28;4203631;28;19954;-55
2023/10/23 05:25:16;;;;;;;;;;;;;;;15.40;58.23;100551.97;4204132;28;19985;-54
2023/10/23 05:27:17;;;;;;;;;;;;;;;15.39;58.07;100550.25;4213918;28;19958;-55
2023/10/23 05:29:21;;;;;;;;;;;;;;;15.40;58.13;100550.16;4215495;28;19928;-54
2023/10/23 05:31:23;;;;;;;;;;;;;;;15.38;57.87;100546.75;4210191;28;19924;-54
2023/10/23 05:33:25;;;;;;;;;;;;;;;15.38;57.87;100541.44;4197194;28;20359;-54
2023/10/23 05:35:26;;;;;;;;;;;;;;;15.38;57.98;100544.09;4213248;28;19924;-54
2023/10/23 05:37:28;;;;;;;;;;;;;;;15.37;57.83;100545.06;4205156;28;19932;-52
2023/10/23 05:39:29;;;;;;;;;;;;;;;15.38;58.01;100537.94;4215551;28;20385;-49
2023/10/23 05:41:31;;;;;;;;;;;;;;;15.37;57.85;100531.81;4205662;28;20010;-53
2023/10/23 05:43:32;;;;;;;;;;;;;;;15.36;58.16;100538.06;4212779;28;20411;-55
2023/10/23 05:45:36;;;;;;;;;;;;;;;15.36;58.12;100535.41;4213848;28;19982;-54
2023/10/23 05:47:37;;;;;;;;;;;;;;;15.34;58.19;100530.16;4203929;28;19924;-54
2023/10/23 05:49:39;;;;;;;;;;;;;;;15.34;57.92;100524.88;4214350;28;19966;-58
2023/10/23 05:51:41;;;;;;;;;;;;;;;15.34;57.77;100519.56;4202248;28;19924;-54
2023/10/23 05:53:42;;;;;;;;;;;;;;;15.34;57.85;100516.91;4211212;28;19924;-51
2023/10/23 05:55:44;;;;;;;;;;;;;;;15.35;58.10;100509.84;4213844;28;19946;-53
2023/10/23 05:57:46;;;;;;;;;;;;;;;15.34;58.19;100516.09;4203715;28;19970;-53
2023/10/23 05:59:48;;;;;;;;;;;;;;;15.34;57.77;100518.72;4215431;28;19935;-53
2023/10/23 06:01:49;;;;;;;;;;;;;;;15.34;57.85;100518.72;4213864;28;19967;-54
2023/10/23 06:03:52;;;;;;;;;;;;;;;15.32;57.86;100516.19;4214844;28;20022;-54
2023/10/23 06:05:54;;;;;;;;;;;;;;;15.34;57.85;100510.78;4213688;28;20274;-52
2023/10/23 06:07:56;;;;;;;;;;;;;;;15.32;58.13;100510.88;4198383;28;19956;-52
2023/10/23 06:09:58;;;;;;;;;;;;;;;15.32;58.05;100510.88;4180349;28;19925;-52
2023/10/23 06:11:59;;;;;;;;;;;;;;;15.32;58.16;100513.53;4197924;28;19928;-53
2023/10/23 06:14:01;;;;;;;;;;;;;;;15.31;57.75;100511.81;4198352;28;19924;-53
2023/10/23 06:16:04;;;;;;;;;;;;;;;15.31;58.06;100513.59;4198091;28;20011;-54
2023/10/23 06:18:06;;;;;;;;;;;;;;;15.29;57.75;100513.69;4210497;28;19932;-53
2023/10/23 06:20:08;;;;;;;;;;;;;;;15.30;57.87;100511.91;4214921;28;19970;-52
2023/10/23 06:22:09;;;;;;;;;;;;;;;15.29;58.08;100503.09;4206521;28;19935;-51
2023/10/23 06:24:11;;;;;;;;;;;;;;;15.29;58.03;100499.59;4206322;28;19931;-55
2023/10/23 06:26:12;;;;;;;;;;;;;;;15.28;58.14;100489.94;4196901;28;19925;-54
2023/10/23 06:28:14;;;;;;;;;;;;;;;15.27;57.78;100486.44;4210029;28;20371;-55
2023/10/23 06:30:16;;;;;;;;;;;;;;;15.27;57.71;100489.06;4199261;28;19963;-56
2023/10/23 06:32:18;;;;;;;;;;;;;;;15.27;58.04;100491.72;4207258;28;20250;-55
2023/10/23 06:34:19;;;;;;;;;;;;;;;15.28;57.83;100495.25;4208443;28;19933;-54
2023/10/23 06:36:21;;;;;;;;;;;;;;;15.28;58.00;100500.53;4197800;28;19956;-54
2023/10/23 06:38:22;;;;;;;;;;;;;;;15.29;57.67;100499.59;4207298;28;20301;-52
2023/10/23 06:40:24;;;;;;;;;;;;;;;15.28;57.75;100497.91;4200844;28;19991;-55
2023/10/23 06:42:26;;;;;;;;;;;;;;;15.26;58.03;100498.00;4199194;28;19924;-55
2023/10/23 06:44:28;;;;;;;;;;;;;;;15.27;57.68;100498.84;4209189;28;19952;-53
2023/10/23 06:46:30;;;;;;;;;;;;;;;15.26;57.64;100490.06;4197430;28;19929;-52
2023/10/23 06:48:31;;;;;;;;;;;;;;;15.25;58.01;100490.13;4205417;28;19928;-50
2023/10/23 06:50:33;;;;;;;;;;;;;;;15.25;57.64;100482.16;4208621;28;19928;-56
2023/10/23 06:52:34;;;;;;;;;;;;;;;15.25;57.85;100477.75;4212463;28;19932;-54
2023/10/23 06:54:36;;;;;;;;;;;;;;;15.25;57.85;100476.88;4203002;28;20042;-54
2023/10/23 06:56:38;;;;;;;;;;;;;;;15.24;57.51;100477.84;4214404;28;20401;-54
2023/10/23 06:58:39;;;;;;;;;;;;;;;15.24;57.78;100477.84;4208138;28;19936;-54
2023/10/23 07:00:41;;;;;;;;;;;;;;;15.23;57.47;100479.63;4207612;28;20003;-54
2023/10/23 07:02:42;;;;;;;;;;;;;;;15.22;57.53;100477.06;4201525;28;19928;-54
2023/10/23 07:04:44;;;;;;;;;;;;;;;15.23;57.78;100478.78;4209009;28;19959;-53
2023/10/23 07:06:46;;;;;;;;;;;;;;;15.23;57.44;100481.44;4179623;28;19971;-51
2023/10/23 07:08:47;;;;;;;;;;;;;;;15.24;57.57;100480.50;4201405;28;19932;-55
2023/10/23 07:10:49;;;;;;;;;;;;;;;15.23;57.46;100478.78;4205212;28;19970;-55
2023/10/23 07:12:50;;;;;;;;;;;;;;;15.22;57.33;100491.16;4197462;28;20402;-52
2023/10/23 07:14:52;;;;;;;;;;;;;;;15.22;57.55;100485.84;4208717;28;20027;-52
2023/10/23 07:16:53;;;;;;;;;;;;;;;15.22;57.75;100479.72;4197979;28;19970;-53
2023/10/23 07:18:55;;;;;;;;;;;;;;;15.21;57.74;100478.84;4206975;28;19994;-53
2023/10/23 07:20:59;;;;;;;;;;;;;;;15.21;57.44;100485.94;4196095;28;19947;-52
2023/10/23 07:23:01;;;;;;;;;;;;;;;15.22;57.42;100485.84;4211252;28;19936;-49
2023/10/23 07:25:04;;;;;;;;;;;;;;;15.22;57.34;100479.72;4207887;28;19924;-49
2023/10/23 07:27:05;;;;;;;;;;;;;;;15.21;57.58;100468.25;4198490;28;19924;-49
2023/10/23 07:29:08;;;;;;;;;;;;;;;15.21;57.40;100480.66;4198427;28;19932;-53
2023/10/23 07:31:10;;;;;;;;;;;;;;;15.20;57.49;100471.88;4201039;28;19924;-49
2023/10/23 07:33:12;;;;;;;;;;;;;;;15.19;57.34;100470.16;4214134;28;19931;-49
2023/10/23 07:35:14;;;;;;;;;;;;;;;15.20;57.41;100466.56;4204096;28;19932;-53
2023/10/23 07:37:18;;;;;;;;;;;;;;;15.20;57.48;100458.63;4210919;28;19932;-51
2023/10/23 07:39:20;;;;;;;;;;;;;;;15.20;57.34;100460.41;4212103;28;19931;-53
2023/10/23 07:41:21;;;;;;;;;;;;;;;15.18;57.72;100450.75;4202329;28;20308;-53
2023/10/23 07:43:26;;;;;;;;;;;;;;;15.18;57.36;100456.03;4213834;28;19955;-53
2023/10/23 07:45:28;;;;;;;;;;;;;;;15.20;57.49;100448.03;4204349;28;19926;-53
2023/10/23 07:47:29;;;;;;;;;;;;;;;15.19;57.45;100446.31;4209255;28;20028;-55
2023/10/23 07:49:31;;;;;;;;;;;;;;;15.19;57.45;100438.38;4211953;28;20433;-52
2023/10/23 07:51:32;;;;;;;;;;;;;;;15.18;57.62;100440.16;4210692;28;19970;-52
2023/10/23 07:53:35;;;;;;;;;;;;;;;15.18;57.71;100447.25;4195459;28;19925;-51
2023/10/23 07:55:37;;;;;;;;;;;;;;;15.18;57.39;100439.31;4200018;28;19970;-54
2023/10/23 07:57:39;;;;;;;;;;;;;;;15.18;57.70;100434.00;4198103;28;19924;-51
2023/10/23 07:59:41;;;;;;;;;;;;;;;15.18;57.69;100428.72;4198275;28;19928;-54
2023/10/23 08:01:42;;;;;;;;;;;;;;;15.19;57.55;100427.78;4204559;28;19972;-54
2023/10/23 08:03:44;;;;;;;;;;;;;;;15.19;57.39;100425.13;4212096;28;20011;-55
2023/10/23 08:05:46;;;;;;;;;;;;;;;15.18;57.76;100424.25;4203717;28;19978;-53
2023/10/23 08:07:48;;;;;;;;;;;;;;;15.19;57.39;100430.41;4196395;28;20293;-53
2023/10/23 08:09:49;;;;;;;;;;;;;;;15.20;57.26;100424.19;4196403;28;19982;-53
2023/10/23 08:11:51;;;;;;;;;;;;;;;15.20;57.52;100421.53;4196357;28;20001;-54
2023/10/23 08:13:52;;;;;;;;;;;;;;;15.20;57.63;100415.38;4196053;28;19924;-52
2023/10/23 08:15:54;;;;;;;;;;;;;;;15.20;57.51;100418.88;4196175;28;19928;-53
2023/10/23 08:18:01;;;;;;;;;;;;;;;15.19;57.28;100409.22;4205707;28;19924;-52
2023/10/23 08:20:03;;;;;;;;;;;;;;;15.18;57.57;100400.41;4213235;28;20326;-52
2023/10/23 08:22:05;;;;;;;;;;;;;;;15.18;57.42;100408.34;4197094;28;19925;-50
2023/10/23 08:24:07;;;;;;;;;;;;;;;15.18;57.48;100399.56;4199990;28;19928;-56
2023/10/23 08:26:09;;;;;;;;;;;;;;;15.18;57.33;100402.22;4207053;28;19969;-53
2023/10/23 08:28:11;;;;;;;;;;;;;;;15.17;57.26;100404.00;4203049;28;19997;-54
2023/10/23 08:30:13;;;;;;;;;;;;;;;15.17;57.39;100398.69;4213054;28;20324;-53
2023/10/23 08:32:15;;;;;;;;;;;;;;;15.18;57.33;100396.94;4203748;28;20313;-53
2023/10/23 08:34:21;;;;;;;;;;;;;;;15.17;57.25;100397.88;4193212;28;19999;-53
2023/10/23 08:36:23;;;;;;;;;;;;;;;15.17;57.59;100400.50;4211779;28;19928;-52
2023/10/23 08:38:24;;;;;;;;;;;;;;;15.16;57.15;100397.03;4205680;28;19973;-54
2023/10/23 08:40:26;;;;;;;;;;;;;;;15.17;57.62;100397.88;4216713;28;20423;-54
2023/10/23 08:42:29;;;;;;;;;;;;;;;15.16;57.21;100399.69;4206629;28;19956;-53
2023/10/23 08:44:30;;;;;;;;;;;;;;;15.18;57.39;100396.94;4213362;28;20491;-54
2023/10/23 08:46:33;;;;;;;;;;;;;;;15.18;57.35;100400.41;4214612;28;19994;-52
2023/10/23 08:48:37;;;;;;;;;;;;;;;15.19;57.25;100395.97;4204690;28;20296;-52
2023/10/23 08:50:40;;;;;;;;;;;;;;;15.18;57.48;100392.47;4215855;28;19971;-53
2023/10/23 08:52:44;;;;;;;;;;;;;;;15.18;57.32;100391.63;4211764;28;19924;-52
2023/10/23 08:54:46;;;;;;;;;;;;;;;15.17;57.44;100390.75;4203503;28;19924;-53
2023/10/23 08:56:58;;;;;;;;;;;;;;;15.17;57.55;100393.41;4200395;28;19953;-53
2023/10/23 08:59:00;;;;;;;;;;;;;;;15.18;57.46;100386.31;4210796;28;19924;-56
2023/10/23 09:01:03;;;;;;;;;;;;;;;15.18;57.26;100386.31;4199849;28;19928;-54
2023/10/23 09:03:04;;;;;;;;;;;;;;;15.18;57.40;100379.22;4210781;28;19924;-54
2023/10/23 09:05:06;;;;;;;;;;;;;;;15.18;57.19;100381.88;4203156;28;19924;-53
2023/10/23 09:07:08;;;;;;;;;;;;;;;15.18;57.23;100375.72;4200332;28;19932;-54
2023/10/23 09:09:10;;;;;;;;;;;;;;;15.19;57.59;100369.50;4192715;28;19925;-54
2023/10/23 09:11:16;;;;;;;;;;;;;;;15.18;57.15;100360.69;4198817;28;19935;-54
2023/10/23 09:13:23;;;;;;;;;;;;;;;15.18;57.30;100357.19;4206658;28;19924;-52
2023/10/23 09:15:24;;;;;;;;;;;;;;;15.18;57.39;100363.31;4203519;28;20305;-54
2023/10/23 09:17:26;;;;;;;;;;;;;;;15.19;57.47;100353.59;4200749;28;19924;-53
2023/10/23 09:19:34;;;;;;;;;;;;;;;15.18;57.20;100354.53;4199112;28;19968;-52
2023/10/23 09:21:35;;;;;;;;;;;;;;;15.18;57.39;100346.59;4199202;28;20259;-56
2023/10/23 09:23:51;;;;;;;;;;;;;;;15.18;57.23;100357.19;4200554;28;19925;-54
2023/10/23 09:25:59;;;;;;;;;;;;;;;15.20;57.49;100351.78;4201921;28;19927;-54
2023/10/23 09:28:01;;;;;;;;;;;;;;;15.18;57.40;100344.78;4213950;28;19973;-53
2023/10/23 09:30:05;;;;;;;;;;;;;;;15.18;57.34;100351.91;4203971;28;19930;-51
2023/10/23 09:32:06;;;;;;;;;;;;;;;15.17;57.40;100345.72;4203442;28;19928;-51
2023/10/23 09:34:08;;;;;;;;;;;;;;;15.18;57.23;100351.91;4207660;28;19924;-53
2023/10/23 09:36:10;;;;;;;;;;;;;;;15.18;57.28;100341.28;4202497;28;19986;-53
2023/10/23 09:38:12;;;;;;;;;;;;;;;15.17;57.53;100343.06;4199971;28;19935;-52
2023/10/23 09:40:16;;;;;;;;;;;;;;;15.18;57.19;100336.84;4209773;28;19924;-55
2023/10/23 09:42:18;;;;;;;;;;;;;;;15.16;57.48;100338.75;4199214;28;20364;-55
2023/10/23 09:44:20;;;;;;;;;;;;;;;15.18;57.26;100336.84;4206240;28;19930;-53
2023/10/23 09:46:23;;;;;;;;;;;;;;;15.17;57.32;100327.19;4203633;28;20115;-53
2023/10/23 09:48:27;;;;;;;;;;;;;;;15.17;57.33;100334.28;4199247;28;20390;-49
2023/10/23 09:50:29;;;;;;;;;;;;;;;15.18;57.29;100325.41;4208993;28;20720;-53
2023/10/23 09:52:32;;;;;;;;;;;;;;;15.18;57.22;100323.59;4215549;28;19928;-54
2023/10/23 09:54:35;;;;;;;;;;;;;;;15.19;57.40;100311.22;4210597;28;20014;-49
2023/10/23 09:56:38;;;;;;;;;;;;;;;15.20;57.20;100314.69;4204175;28;19950;-51
2023/10/23 09:58:44;;;;;;;;;;;;;;;15.20;57.56;100309.41;4199828;28;20403;-51
2023/10/23 10:00:47;;;;;;;;;;;;;;;15.21;57.56;100308.47;4209994;28;19930;-53
2023/10/23 10:02:51;;;;;;;;;;;;;;;15.21;57.27;100292.56;4211714;28;20023;-52
2023/10/23 10:05:00;;;;;;;;;;;;;;;15.23;57.52;100304.78;4211214;28;20007;-49
2023/10/23 10:07:08;;;;;;;;;;;;;;;15.23;57.36;100291.53;4185327;28;19932;-51
2023/10/23 10:09:12;;;;;;;;;;;;;;;15.22;57.45;100288.97;4199310;28;19934;-53
2023/10/23 10:11:14;;;;;;;;;;;;;;;15.22;57.47;100294.28;4209713;28;19940;-49
2023/10/23 10:13:16;;;;;;;;;;;;;;;15.22;57.47;100284.53;4198429;28;20034;-54
2023/10/23 10:15:17;;;;;;;;;;;;;;;15.22;57.54;100279.22;4201073;28;20301;-51
2023/10/23 10:17:20;;;;;;;;;;;;;;;15.23;57.55;100274.78;4204779;28;19967;-52
2023/10/23 10:19:22;;;;;;;;;;;;;;;15.23;57.73;100272.16;4202917;28;19935;-50
2023/10/23 10:21:27;;;;;;;;;;;;;;;15.23;57.39;100272.97;4209304;28;19931;-51
2023/10/23 10:23:29;;;;;;;;;;;;;;;15.23;57.40;100265.03;4202043;28;20396;-52
2023/10/23 10:25:31;;;;;;;;;;;;;;;15.24;57.72;100265.91;4200780;28;19931;-54
2023/10/23 10:27:33;;;;;;;;;;;;;;;15.25;57.51;100264.94;4214852;28;19966;-51